sensor_id;sensor_type;location;lat;lon;timestamp;temperature;humidity
23579;DHT22;11967;50.852;4.400;2024-01-06T00:00:37;10.20;99.90
23579;DHT22;11967;50.852;4.400;2024-01-06T00:03:03;10.10;99.90
23579;DHT22;11967;50.852;4.400;2024-01-06T00:05:28;10.20;99.90
23579;DHT22;11967;50.852;4.400;2024-01-06T00:07:54;10.00;99.90
23579;DHT22;11967;50.852;4.400;2024-01-06T00:10:20;10.10;99.90
23579;DHT22;11967;50.852;4.400;2024-01-06T00:12:45;10.20;99.90
23579;DHT22;11967;50.852;4.400;2024-01-06T00:15:11;10.20;99.90
23579;DHT22;11967;50.852;4.400;2024-01-06T00:17:37;10.20;99.90
23579;DHT22;11967;50.852;4.400;2024-01-06T00:20:03;10.10;99.90
23579;DHT22;11967;50.852;4.400;2024-01-06T00:22:29;10.10;99.90
23579;DHT22;11967;50.852;4.400;2024-01-06T00:24:55;10.00;99.90
23579;DHT22;11967;50.852;4.400;2024-01-06T00:27:21;10.10;99.90
23579;DHT22;11967;50.852;4.400;2024-01-06T00:29:46;10.10;99.90
23579;DHT22;11967;50.852;4.400;2024-01-06T00:32:13;10.10;99.90
23579;DHT22;11967;50.852;4.400;2024-01-06T00:34:38;10.10;99.90
23579;DHT22;11967;50.852;4.400;2024-01-06T00:37:04;10.10;99.90
23579;DHT22;11967;50.852;4.400;2024-01-06T00:39:29;10.10;99.90
23579;DHT22;11967;50.852;4.400;2024-01-06T00:41:55;10.10;99.90
23579;DHT22;11967;50.852;4.400;2024-01-06T00:44:21;10.10;99.90
23579;DHT22;11967;50.852;4.400;2024-01-06T00:46:47;10.10;99.90
23579;DHT22;11967;50.852;4.400;2024-01-06T00:49:12;10.00;99.90
23579;DHT22;11967;50.852;4.400;2024-01-06T00:51:38;10.00;99.90
23579;DHT22;11967;50.852;4.400;2024-01-06T00:54:04;10.00;99.90
23579;DHT22;11967;50.852;4.400;2024-01-06T00:56:29;10.10;99.90
23579;DHT22;11967;50.852;4.400;2024-01-06T00:58:55;10.20;99.90
23579;DHT22;11967;50.852;4.400;2024-01-06T01:01:21;10.20;99.90
23579;DHT22;11967;50.852;4.400;2024-01-06T01:03:47;10.10;99.90
23579;DHT22;11967;50.852;4.400;2024-01-06T01:06:12;10.20;99.90
23579;DHT22;11967;50.852;4.400;2024-01-06T01:08:38;10.20;99.90
23579;DHT22;11967;50.852;4.400;2024-01-06T01:11:04;10.10;99.90
23579;DHT22;11967;50.852;4.400;2024-01-06T01:13:29;10.00;99.90
23579;DHT22;11967;50.852;4.400;2024-01-06T01:15:55;9.90;99.90
23579;DHT22;11967;50.852;4.400;2024-01-06T01:18:21;9.90;99.90
23579;DHT22;11967;50.852;4.400;2024-01-06T01:20:47;9.80;99.90
23579;DHT22;11967;50.852;4.400;2024-01-06T01:23:12;9.80;99.90
23579;DHT22;11967;50.852;4.400;2024-01-06T01:25:38;9.80;99.90
23579;DHT22;11967;50.852;4.400;2024-01-06T01:28:04;9.90;99.90
23579;DHT22;11967;50.852;4.400;2024-01-06T01:30:29;9.90;99.90
23579;DHT22;11967;50.852;4.400;2024-01-06T01:32:55;9.90;99.90
23579;DHT22;11967;50.852;4.400;2024-01-06T01:35:21;9.80;99.90
23579;DHT22;11967;50.852;4.400;2024-01-06T01:37:46;9.90;99.90
23579;DHT22;11967;50.852;4.400;2024-01-06T01:40:12;9.80;99.90
23579;DHT22;11967;50.852;4.400;2024-01-06T01:42:38;9.70;99.90
23579;DHT22;11967;50.852;4.400;2024-01-06T01:45:04;9.70;99.90
23579;DHT22;11967;50.852;4.400;2024-01-06T01:47:30;9.70;99.90
23579;DHT22;11967;50.852;4.400;2024-01-06T01:49:57;9.80;99.90
23579;DHT22;11967;50.852;4.400;2024-01-06T01:52:23;9.80;99.90
23579;DHT22;11967;50.852;4.400;2024-01-06T01:54:48;9.90;99.90
23579;DHT22;11967;50.852;4.400;2024-01-06T01:57:15;9.80;99.90
23579;DHT22;11967;50.852;4.400;2024-01-06T01:59:42;9.80;99.90
23579;DHT22;11967;50.852;4.400;2024-01-06T02:02:08;9.80;99.90
23579;DHT22;11967;50.852;4.400;2024-01-06T02:04:34;9.80;99.90
23579;DHT22;11967;50.852;4.400;2024-01-06T02:07:00;9.90;99.90
23579;DHT22;11967;50.852;4.400;2024-01-06T02:09:26;9.80;99.90
23579;DHT22;11967;50.852;4.400;2024-01-06T02:11:52;9.90;99.90
23579;DHT22;11967;50.852;4.400;2024-01-06T02:14:18;9.90;99.90
23579;DHT22;11967;50.852;4.400;2024-01-06T02:16:44;10.00;99.90
23579;DHT22;11967;50.852;4.400;2024-01-06T02:19:11;10.00;99.90
23579;DHT22;11967;50.852;4.400;2024-01-06T02:21:42;10.00;99.90
23579;DHT22;11967;50.852;4.400;2024-01-06T02:24:09;10.00;99.90
23579;DHT22;11967;50.852;4.400;2024-01-06T02:26:35;10.00;99.90
23579;DHT22;11967;50.852;4.400;2024-01-06T02:29:00;10.00;99.90
23579;DHT22;11967;50.852;4.400;2024-01-06T02:31:27;10.10;99.90
23579;DHT22;11967;50.852;4.400;2024-01-06T02:33:53;10.00;99.90
23579;DHT22;11967;50.852;4.400;2024-01-06T02:36:19;10.00;99.90
23579;DHT22;11967;50.852;4.400;2024-01-06T02:38:44;10.10;99.90
23579;DHT22;11967;50.852;4.400;2024-01-06T02:41:10;10.10;99.90
23579;DHT22;11967;50.852;4.400;2024-01-06T02:43:36;10.10;99.90
23579;DHT22;11967;50.852;4.400;2024-01-06T02:46:01;10.10;99.90
23579;DHT22;11967;50.852;4.400;2024-01-06T02:48:27;10.10;99.90
23579;DHT22;11967;50.852;4.400;2024-01-06T02:50:56;10.10;99.90
23579;DHT22;11967;50.852;4.400;2024-01-06T02:53:21;10.10;99.90
23579;DHT22;11967;50.852;4.400;2024-01-06T02:55:47;10.10;99.90
23579;DHT22;11967;50.852;4.400;2024-01-06T02:58:13;10.10;99.90
23579;DHT22;11967;50.852;4.400;2024-01-06T03:00:38;10.10;99.90
23579;DHT22;11967;50.852;4.400;2024-01-06T03:03:04;10.20;99.90
23579;DHT22;11967;50.852;4.400;2024-01-06T03:05:30;10.20;99.90
23579;DHT22;11967;50.852;4.400;2024-01-06T03:07:55;10.20;99.90
23579;DHT22;11967;50.852;4.400;2024-01-06T03:10:21;10.20;99.90
23579;DHT22;11967;50.852;4.400;2024-01-06T03:12:47;10.20;99.90
23579;DHT22;11967;50.852;4.400;2024-01-06T03:15:13;10.30;99.90
23579;DHT22;11967;50.852;4.400;2024-01-06T03:17:39;10.30;99.90
23579;DHT22;11967;50.852;4.400;2024-01-06T03:20:05;10.30;99.90
23579;DHT22;11967;50.852;4.400;2024-01-06T03:22:31;10.20;99.90
23579;DHT22;11967;50.852;4.400;2024-01-06T03:24:56;10.20;99.90
23579;DHT22;11967;50.852;4.400;2024-01-06T03:27:22;10.30;99.90
23579;DHT22;11967;50.852;4.400;2024-01-06T03:29:48;10.20;99.90
23579;DHT22;11967;50.852;4.400;2024-01-06T03:32:13;10.30;99.90
23579;DHT22;11967;50.852;4.400;2024-01-06T03:34:40;10.30;99.90
23579;DHT22;11967;50.852;4.400;2024-01-06T03:37:06;10.30;99.90
23579;DHT22;11967;50.852;4.400;2024-01-06T03:39:32;10.30;99.90
23579;DHT22;11967;50.852;4.400;2024-01-06T03:41:57;10.30;99.90
23579;DHT22;11967;50.852;4.400;2024-01-06T03:44:23;10.30;99.90
23579;DHT22;11967;50.852;4.400;2024-01-06T03:46:49;10.30;99.90
23579;DHT22;11967;50.852;4.400;2024-01-06T03:49:15;10.30;99.90
23579;DHT22;11967;50.852;4.400;2024-01-06T03:51:43;10.30;99.90
23579;DHT22;11967;50.852;4.400;2024-01-06T03:54:09;10.20;99.90
23579;DHT22;11967;50.852;4.400;2024-01-06T03:56:35;10.30;99.90
23579;DHT22;11967;50.852;4.400;2024-01-06T03:59:00;10.30;99.90
23579;DHT22;11967;50.852;4.400;2024-01-06T04:01:26;10.30;99.90
23579;DHT22;11967;50.852;4.400;2024-01-06T04:03:52;10.40;99.90
23579;DHT22;11967;50.852;4.400;2024-01-06T04:06:17;10.40;99.90
23579;DHT22;11967;50.852;4.400;2024-01-06T04:08:43;10.40;99.90
23579;DHT22;11967;50.852;4.400;2024-01-06T04:11:08;10.40;99.90
23579;DHT22;11967;50.852;4.400;2024-01-06T04:13:34;10.40;99.90
23579;DHT22;11967;50.852;4.400;2024-01-06T04:16:00;10.40;99.90
23579;DHT22;11967;50.852;4.400;2024-01-06T04:18:25;10.40;99.90
23579;DHT22;11967;50.852;4.400;2024-01-06T04:20:51;10.40;99.90
23579;DHT22;11967;50.852;4.400;2024-01-06T04:23:16;10.40;99.90
23579;DHT22;11967;50.852;4.400;2024-01-06T04:25:42;10.40;99.90
23579;DHT22;11967;50.852;4.400;2024-01-06T04:28:08;10.40;99.90
23579;DHT22;11967;50.852;4.400;2024-01-06T04:30:33;10.40;99.90
23579;DHT22;11967;50.852;4.400;2024-01-06T04:32:59;10.40;99.90
23579;DHT22;11967;50.852;4.400;2024-01-06T04:35:25;10.40;99.90
23579;DHT22;11967;50.852;4.400;2024-01-06T04:37:51;10.40;99.90
23579;DHT22;11967;50.852;4.400;2024-01-06T04:40:16;10.40;99.90
23579;DHT22;11967;50.852;4.400;2024-01-06T04:42:42;10.40;99.90
23579;DHT22;11967;50.852;4.400;2024-01-06T04:45:08;10.40;99.90
23579;DHT22;11967;50.852;4.400;2024-01-06T04:47:35;10.40;99.90
23579;DHT22;11967;50.852;4.400;2024-01-06T04:50:00;10.40;99.90
23579;DHT22;11967;50.852;4.400;2024-01-06T04:52:26;10.40;99.90
23579;DHT22;11967;50.852;4.400;2024-01-06T04:54:52;10.40;99.90
23579;DHT22;11967;50.852;4.400;2024-01-06T04:57:18;10.40;99.90
23579;DHT22;11967;50.852;4.400;2024-01-06T04:59:46;10.50;99.90
23579;DHT22;11967;50.852;4.400;2024-01-06T05:02:11;10.50;99.90
23579;DHT22;11967;50.852;4.400;2024-01-06T05:04:37;10.40;99.90
23579;DHT22;11967;50.852;4.400;2024-01-06T05:07:03;10.40;99.90
23579;DHT22;11967;50.852;4.400;2024-01-06T05:09:28;10.40;99.90
23579;DHT22;11967;50.852;4.400;2024-01-06T05:11:54;10.50;99.90
23579;DHT22;11967;50.852;4.400;2024-01-06T05:14:20;10.50;99.90
23579;DHT22;11967;50.852;4.400;2024-01-06T05:16:46;10.50;99.90
23579;DHT22;11967;50.852;4.400;2024-01-06T05:19:11;10.60;99.90
23579;DHT22;11967;50.852;4.400;2024-01-06T05:21:37;10.50;99.90
23579;DHT22;11967;50.852;4.400;2024-01-06T05:24:04;10.50;99.90
23579;DHT22;11967;50.852;4.400;2024-01-06T05:26:29;10.50;99.90
23579;DHT22;11967;50.852;4.400;2024-01-06T05:28:55;10.50;99.90
23579;DHT22;11967;50.852;4.400;2024-01-06T05:31:21;10.50;99.90
23579;DHT22;11967;50.852;4.400;2024-01-06T05:33:46;10.50;99.90
23579;DHT22;11967;50.852;4.400;2024-01-06T05:36:12;10.50;99.90
23579;DHT22;11967;50.852;4.400;2024-01-06T05:38:37;10.50;99.90
23579;DHT22;11967;50.852;4.400;2024-01-06T05:41:03;10.50;99.90
23579;DHT22;11967;50.852;4.400;2024-01-06T05:43:29;10.50;99.90
23579;DHT22;11967;50.852;4.400;2024-01-06T05:45:54;10.50;99.90
23579;DHT22;11967;50.852;4.400;2024-01-06T05:48:20;10.50;99.90
23579;DHT22;11967;50.852;4.400;2024-01-06T05:50:46;10.50;99.90
23579;DHT22;11967;50.852;4.400;2024-01-06T05:53:11;10.50;99.90
23579;DHT22;11967;50.852;4.400;2024-01-06T05:55:39;10.50;99.90
23579;DHT22;11967;50.852;4.400;2024-01-06T05:58:05;10.50;99.90
23579;DHT22;11967;50.852;4.400;2024-01-06T06:00:30;10.50;99.90
23579;DHT22;11967;50.852;4.400;2024-01-06T06:02:59;10.50;99.90
23579;DHT22;11967;50.852;4.400;2024-01-06T06:05:25;10.50;99.90
23579;DHT22;11967;50.852;4.400;2024-01-06T06:07:51;10.50;99.90
23579;DHT22;11967;50.852;4.400;2024-01-06T06:10:17;10.50;99.90
23579;DHT22;11967;50.852;4.400;2024-01-06T06:12:44;10.50;99.90
23579;DHT22;11967;50.852;4.400;2024-01-06T06:15:10;10.50;99.90
23579;DHT22;11967;50.852;4.400;2024-01-06T06:17:36;10.50;99.90
23579;DHT22;11967;50.852;4.400;2024-01-06T06:20:02;10.50;99.90
23579;DHT22;11967;50.852;4.400;2024-01-06T06:22:28;10.50;99.90
23579;DHT22;11967;50.852;4.400;2024-01-06T06:24:58;10.40;99.90
23579;DHT22;11967;50.852;4.400;2024-01-06T06:27:25;10.40;99.90
23579;DHT22;11967;50.852;4.400;2024-01-06T06:29:51;10.40;99.90
23579;DHT22;11967;50.852;4.400;2024-01-06T06:32:17;10.40;99.90
23579;DHT22;11967;50.852;4.400;2024-01-06T06:34:43;10.30;99.90
23579;DHT22;11967;50.852;4.400;2024-01-06T06:37:08;10.30;99.90
23579;DHT22;11967;50.852;4.400;2024-01-06T06:39:34;10.30;99.90
23579;DHT22;11967;50.852;4.400;2024-01-06T06:42:01;10.30;99.90
23579;DHT22;11967;50.852;4.400;2024-01-06T06:44:27;10.30;99.90
23579;DHT22;11967;50.852;4.400;2024-01-06T06:46:52;10.30;99.90
23579;DHT22;11967;50.852;4.400;2024-01-06T06:49:18;10.20;99.90
23579;DHT22;11967;50.852;4.400;2024-01-06T06:51:43;10.20;99.90
23579;DHT22;11967;50.852;4.400;2024-01-06T06:54:14;10.20;99.90
23579;DHT22;11967;50.852;4.400;2024-01-06T06:56:44;10.20;99.90
23579;DHT22;11967;50.852;4.400;2024-01-06T06:59:10;10.20;99.90
23579;DHT22;11967;50.852;4.400;2024-01-06T07:01:35;10.20;99.90
23579;DHT22;11967;50.852;4.400;2024-01-06T07:04:04;10.20;99.90
23579;DHT22;11967;50.852;4.400;2024-01-06T07:06:30;10.20;99.90
23579;DHT22;11967;50.852;4.400;2024-01-06T07:08:56;10.10;99.90
23579;DHT22;11967;50.852;4.400;2024-01-06T07:11:22;10.10;99.90
23579;DHT22;11967;50.852;4.400;2024-01-06T07:13:48;10.10;99.90
23579;DHT22;11967;50.852;4.400;2024-01-06T07:16:13;10.10;99.90
23579;DHT22;11967;50.852;4.400;2024-01-06T07:18:39;10.10;99.90
23579;DHT22;11967;50.852;4.400;2024-01-06T07:21:05;10.10;99.90
23579;DHT22;11967;50.852;4.400;2024-01-06T07:23:34;10.10;99.90
23579;DHT22;11967;50.852;4.400;2024-01-06T07:26:00;10.10;99.90
23579;DHT22;11967;50.852;4.400;2024-01-06T07:28:26;10.10;99.90
23579;DHT22;11967;50.852;4.400;2024-01-06T07:30:52;10.10;99.90
23579;DHT22;11967;50.852;4.400;2024-01-06T07:33:20;10.10;99.90
23579;DHT22;11967;50.852;4.400;2024-01-06T07:35:46;10.10;99.90
23579;DHT22;11967;50.852;4.400;2024-01-06T07:38:13;10.00;99.90
23579;DHT22;11967;50.852;4.400;2024-01-06T07:40:39;10.00;99.90
23579;DHT22;11967;50.852;4.400;2024-01-06T07:43:04;10.10;99.90
23579;DHT22;11967;50.852;4.400;2024-01-06T07:45:31;10.00;99.90
23579;DHT22;11967;50.852;4.400;2024-01-06T07:47:57;10.00;99.90
23579;DHT22;11967;50.852;4.400;2024-01-06T07:50:23;10.00;99.90
23579;DHT22;11967;50.852;4.400;2024-01-06T07:52:49;10.00;99.90
23579;DHT22;11967;50.852;4.400;2024-01-06T07:55:14;10.00;99.90
23579;DHT22;11967;50.852;4.400;2024-01-06T07:57:42;10.00;99.90
23579;DHT22;11967;50.852;4.400;2024-01-06T08:00:08;10.10;99.90
23579;DHT22;11967;50.852;4.400;2024-01-06T08:02:34;10.10;99.90
23579;DHT22;11967;50.852;4.400;2024-01-06T08:04:59;10.00;99.90
23579;DHT22;11967;50.852;4.400;2024-01-06T08:07:25;10.00;99.90
23579;DHT22;11967;50.852;4.400;2024-01-06T08:09:51;10.00;99.90
23579;DHT22;11967;50.852;4.400;2024-01-06T08:12:16;10.10;99.90
23579;DHT22;11967;50.852;4.400;2024-01-06T08:14:42;10.30;99.90
23579;DHT22;11967;50.852;4.400;2024-01-06T08:17:07;10.30;99.90
23579;DHT22;11967;50.852;4.400;2024-01-06T08:19:33;10.30;99.90
23579;DHT22;11967;50.852;4.400;2024-01-06T08:22:01;10.20;99.90
23579;DHT22;11967;50.852;4.400;2024-01-06T08:24:27;10.30;99.90
23579;DHT22;11967;50.852;4.400;2024-01-06T08:26:52;10.20;99.90
23579;DHT22;11967;50.852;4.400;2024-01-06T08:29:18;10.10;99.90
23579;DHT22;11967;50.852;4.400;2024-01-06T08:31:45;10.10;99.90
23579;DHT22;11967;50.852;4.400;2024-01-06T08:34:11;10.10;99.90
23579;DHT22;11967;50.852;4.400;2024-01-06T08:36:36;10.10;99.90
23579;DHT22;11967;50.852;4.400;2024-01-06T08:39:02;10.10;99.90
23579;DHT22;11967;50.852;4.400;2024-01-06T08:41:28;10.20;99.90
23579;DHT22;11967;50.852;4.400;2024-01-06T08:43:54;10.20;99.90
23579;DHT22;11967;50.852;4.400;2024-01-06T08:46:19;10.20;99.90
23579;DHT22;11967;50.852;4.400;2024-01-06T08:48:45;10.10;99.90
23579;DHT22;11967;50.852;4.400;2024-01-06T08:51:11;10.20;99.90
23579;DHT22;11967;50.852;4.400;2024-01-06T08:53:36;10.20;99.90
23579;DHT22;11967;50.852;4.400;2024-01-06T08:56:03;10.10;99.90
23579;DHT22;11967;50.852;4.400;2024-01-06T08:58:28;10.00;99.90
23579;DHT22;11967;50.852;4.400;2024-01-06T09:00:54;10.10;99.90
23579;DHT22;11967;50.852;4.400;2024-01-06T09:03:20;10.10;99.90
23579;DHT22;11967;50.852;4.400;2024-01-06T09:05:55;10.20;99.90
23579;DHT22;11967;50.852;4.400;2024-01-06T09:08:21;10.20;99.90
23579;DHT22;11967;50.852;4.400;2024-01-06T09:10:47;10.20;99.90
23579;DHT22;11967;50.852;4.400;2024-01-06T09:13:13;10.10;99.90
23579;DHT22;11967;50.852;4.400;2024-01-06T09:15:39;10.10;99.90
23579;DHT22;11967;50.852;4.400;2024-01-06T09:18:04;10.10;99.90
23579;DHT22;11967;50.852;4.400;2024-01-06T09:20:30;10.10;99.90
23579;DHT22;11967;50.852;4.400;2024-01-06T09:22:56;10.00;99.90
23579;DHT22;11967;50.852;4.400;2024-01-06T09:25:21;10.00;99.90
23579;DHT22;11967;50.852;4.400;2024-01-06T09:27:50;10.10;99.90
23579;DHT22;11967;50.852;4.400;2024-01-06T09:30:16;10.10;99.90
23579;DHT22;11967;50.852;4.400;2024-01-06T09:32:42;10.00;99.90
23579;DHT22;11967;50.852;4.400;2024-01-06T09:35:08;10.00;99.90
23579;DHT22;11967;50.852;4.400;2024-01-06T09:37:33;10.00;99.90
23579;DHT22;11967;50.852;4.400;2024-01-06T09:39:59;9.90;99.90
23579;DHT22;11967;50.852;4.400;2024-01-06T09:42:25;9.90;99.90
23579;DHT22;11967;50.852;4.400;2024-01-06T09:44:51;10.00;99.90
23579;DHT22;11967;50.852;4.400;2024-01-06T09:47:18;10.00;99.90
23579;DHT22;11967;50.852;4.400;2024-01-06T09:49:49;9.90;99.90
23579;DHT22;11967;50.852;4.400;2024-01-06T09:52:17;9.90;99.90
23579;DHT22;11967;50.852;4.400;2024-01-06T09:54:54;9.90;99.90
23579;DHT22;11967;50.852;4.400;2024-01-06T09:57:23;9.90;99.90
23579;DHT22;11967;50.852;4.400;2024-01-06T09:59:48;10.00;99.90
23579;DHT22;11967;50.852;4.400;2024-01-06T10:02:15;10.00;99.90
23579;DHT22;11967;50.852;4.400;2024-01-06T10:04:45;10.00;99.90
23579;DHT22;11967;50.852;4.400;2024-01-06T10:07:11;9.90;99.90
23579;DHT22;11967;50.852;4.400;2024-01-06T10:09:40;10.00;99.90
23579;DHT22;11967;50.852;4.400;2024-01-06T10:12:06;10.00;99.90
23579;DHT22;11967;50.852;4.400;2024-01-06T10:14:32;9.90;99.90
23579;DHT22;11967;50.852;4.400;2024-01-06T10:16:58;9.90;99.90
23579;DHT22;11967;50.852;4.400;2024-01-06T10:19:25;9.90;99.90
23579;DHT22;11967;50.852;4.400;2024-01-06T10:21:51;9.90;99.90
23579;DHT22;11967;50.852;4.400;2024-01-06T10:24:20;10.00;99.90
23579;DHT22;11967;50.852;4.400;2024-01-06T10:26:46;9.90;99.90
23579;DHT22;11967;50.852;4.400;2024-01-06T10:29:13;9.90;99.90
23579;DHT22;11967;50.852;4.400;2024-01-06T10:31:39;9.90;99.90
23579;DHT22;11967;50.852;4.400;2024-01-06T10:34:05;9.90;99.90
23579;DHT22;11967;50.852;4.400;2024-01-06T10:36:31;9.90;99.90
23579;DHT22;11967;50.852;4.400;2024-01-06T10:38:57;9.90;99.90
23579;DHT22;11967;50.852;4.400;2024-01-06T10:41:24;9.90;99.90
23579;DHT22;11967;50.852;4.400;2024-01-06T10:43:51;10.00;99.90
23579;DHT22;11967;50.852;4.400;2024-01-06T10:46:19;10.00;99.90
23579;DHT22;11967;50.852;4.400;2024-01-06T10:48:46;10.00;99.90
23579;DHT22;11967;50.852;4.400;2024-01-06T10:51:13;9.90;99.90
23579;DHT22;11967;50.852;4.400;2024-01-06T10:53:42;9.90;99.90
23579;DHT22;11967;50.852;4.400;2024-01-06T10:56:09;9.80;99.90
23579;DHT22;11967;50.852;4.400;2024-01-06T10:58:46;9.80;99.90
23579;DHT22;11967;50.852;4.400;2024-01-06T11:01:13;9.80;99.90
23579;DHT22;11967;50.852;4.400;2024-01-06T11:03:39;9.90;99.90
23579;DHT22;11967;50.852;4.400;2024-01-06T11:06:06;9.90;99.90
23579;DHT22;11967;50.852;4.400;2024-01-06T11:08:36;9.90;99.90
23579;DHT22;11967;50.852;4.400;2024-01-06T11:11:05;9.90;99.90
23579;DHT22;11967;50.852;4.400;2024-01-06T11:13:31;9.90;99.90
23579;DHT22;11967;50.852;4.400;2024-01-06T11:15:56;9.90;99.90
23579;DHT22;11967;50.852;4.400;2024-01-06T11:18:39;9.80;99.90
23579;DHT22;11967;50.852;4.400;2024-01-06T11:23:40;9.90;99.90
23579;DHT22;11967;50.852;4.400;2024-01-06T11:26:06;9.90;99.90
23579;DHT22;11967;50.852;4.400;2024-01-06T11:28:46;10.00;99.90
23579;DHT22;11967;50.852;4.400;2024-01-06T11:31:12;10.00;99.90
23579;DHT22;11967;50.852;4.400;2024-01-06T11:33:42;9.90;99.90
23579;DHT22;11967;50.852;4.400;2024-01-06T11:36:11;9.90;99.90
23579;DHT22;11967;50.852;4.400;2024-01-06T11:38:38;9.90;99.90
23579;DHT22;11967;50.852;4.400;2024-01-06T11:41:06;9.90;99.90
23579;DHT22;11967;50.852;4.400;2024-01-06T11:43:34;9.80;99.90
23579;DHT22;11967;50.852;4.400;2024-01-06T11:46:01;9.90;99.90
23579;DHT22;11967;50.852;4.400;2024-01-06T11:48:30;10.20;99.90
23579;DHT22;11967;50.852;4.400;2024-01-06T11:50:57;10.10;99.90
23579;DHT22;11967;50.852;4.400;2024-01-06T11:53:28;10.10;99.90
23579;DHT22;11967;50.852;4.400;2024-01-06T11:55:54;10.00;99.90
23579;DHT22;11967;50.852;4.400;2024-01-06T11:58:20;10.00;99.90
23579;DHT22;11967;50.852;4.400;2024-01-06T12:00:55;10.00;99.90
23579;DHT22;11967;50.852;4.400;2024-01-06T12:03:22;9.90;99.90
23579;DHT22;11967;50.852;4.400;2024-01-06T12:06:00;9.80;99.90
23579;DHT22;11967;50.852;4.400;2024-01-06T12:08:26;9.90;99.90
23579;DHT22;11967;50.852;4.400;2024-01-06T12:11:02;10.00;99.90
23579;DHT22;11967;50.852;4.400;2024-01-06T12:13:28;10.10;99.90
23579;DHT22;11967;50.852;4.400;2024-01-06T12:15:54;10.00;99.90
23579;DHT22;11967;50.852;4.400;2024-01-06T12:18:21;10.00;99.90
23579;DHT22;11967;50.852;4.400;2024-01-06T12:20:46;9.90;99.90
23579;DHT22;11967;50.852;4.400;2024-01-06T12:23:12;9.80;99.90
23579;DHT22;11967;50.852;4.400;2024-01-06T12:25:37;9.80;99.90
23579;DHT22;11967;50.852;4.400;2024-01-06T12:28:05;9.80;99.90
23579;DHT22;11967;50.852;4.400;2024-01-06T12:30:33;9.80;99.90
23579;DHT22;11967;50.852;4.400;2024-01-06T12:32:59;9.80;99.90
23579;DHT22;11967;50.852;4.400;2024-01-06T12:35:26;9.80;99.90
23579;DHT22;11967;50.852;4.400;2024-01-06T12:37:52;9.90;99.90
23579;DHT22;11967;50.852;4.400;2024-01-06T12:40:18;10.00;99.90
23579;DHT22;11967;50.852;4.400;2024-01-06T12:42:46;10.10;99.90
23579;DHT22;11967;50.852;4.400;2024-01-06T12:45:11;10.10;99.90
23579;DHT22;11967;50.852;4.400;2024-01-06T12:47:38;10.10;99.90
23579;DHT22;11967;50.852;4.400;2024-01-06T12:50:04;10.10;99.90
23579;DHT22;11967;50.852;4.400;2024-01-06T12:52:30;10.00;99.90
23579;DHT22;11967;50.852;4.400;2024-01-06T12:54:56;10.00;99.90
23579;DHT22;11967;50.852;4.400;2024-01-06T12:57:21;9.90;99.90
23579;DHT22;11967;50.852;4.400;2024-01-06T12:59:47;10.00;99.90
23579;DHT22;11967;50.852;4.400;2024-01-06T13:02:14;10.10;99.90
23579;DHT22;11967;50.852;4.400;2024-01-06T13:04:40;10.30;99.90
23579;DHT22;11967;50.852;4.400;2024-01-06T13:07:05;10.40;99.90
23579;DHT22;11967;50.852;4.400;2024-01-06T13:09:31;10.40;99.90
23579;DHT22;11967;50.852;4.400;2024-01-06T13:11:58;10.40;99.90
23579;DHT22;11967;50.852;4.400;2024-01-06T13:14:26;10.30;99.90
23579;DHT22;11967;50.852;4.400;2024-01-06T13:16:52;10.20;99.90
23579;DHT22;11967;50.852;4.400;2024-01-06T13:19:18;10.20;99.90
23579;DHT22;11967;50.852;4.400;2024-01-06T13:21:44;10.30;99.90
23579;DHT22;11967;50.852;4.400;2024-01-06T13:24:10;10.20;99.90
23579;DHT22;11967;50.852;4.400;2024-01-06T13:26:37;10.20;99.90
23579;DHT22;11967;50.852;4.400;2024-01-06T13:29:03;10.20;99.90
23579;DHT22;11967;50.852;4.400;2024-01-06T13:31:29;10.20;99.90
23579;DHT22;11967;50.852;4.400;2024-01-06T13:33:57;10.10;99.90
23579;DHT22;11967;50.852;4.400;2024-01-06T13:36:23;10.10;99.90
23579;DHT22;11967;50.852;4.400;2024-01-06T13:38:48;10.10;99.90
23579;DHT22;11967;50.852;4.400;2024-01-06T13:41:14;10.10;99.90
23579;DHT22;11967;50.852;4.400;2024-01-06T13:43:40;10.00;99.90
23579;DHT22;11967;50.852;4.400;2024-01-06T13:46:07;10.10;99.90
23579;DHT22;11967;50.852;4.400;2024-01-06T13:48:33;10.10;99.90
23579;DHT22;11967;50.852;4.400;2024-01-06T13:50:59;10.10;99.90
23579;DHT22;11967;50.852;4.400;2024-01-06T13:53:25;10.00;99.90
23579;DHT22;11967;50.852;4.400;2024-01-06T13:55:50;10.00;99.90
23579;DHT22;11967;50.852;4.400;2024-01-06T13:58:16;10.00;99.90
23579;DHT22;11967;50.852;4.400;2024-01-06T14:00:45;10.10;99.90
23579;DHT22;11967;50.852;4.400;2024-01-06T14:03:11;10.10;99.90
23579;DHT22;11967;50.852;4.400;2024-01-06T14:05:36;10.10;99.90
23579;DHT22;11967;50.852;4.400;2024-01-06T14:08:03;10.20;99.90
23579;DHT22;11967;50.852;4.400;2024-01-06T14:10:29;10.10;99.90
23579;DHT22;11967;50.852;4.400;2024-01-06T14:12:56;10.00;99.90
23579;DHT22;11967;50.852;4.400;2024-01-06T14:15:22;10.00;99.90
23579;DHT22;11967;50.852;4.400;2024-01-06T14:17:47;9.90;99.90
23579;DHT22;11967;50.852;4.400;2024-01-06T14:20:18;9.90;99.90
23579;DHT22;11967;50.852;4.400;2024-01-06T14:22:45;9.80;99.90
23579;DHT22;11967;50.852;4.400;2024-01-06T14:25:12;9.90;99.90
23579;DHT22;11967;50.852;4.400;2024-01-06T14:27:38;9.80;99.90
23579;DHT22;11967;50.852;4.400;2024-01-06T14:30:05;9.80;99.90
23579;DHT22;11967;50.852;4.400;2024-01-06T14:32:33;9.80;99.90
23579;DHT22;11967;50.852;4.400;2024-01-06T14:35:00;9.90;99.90
23579;DHT22;11967;50.852;4.400;2024-01-06T14:37:27;9.90;99.90
23579;DHT22;11967;50.852;4.400;2024-01-06T14:39:52;9.90;99.90
23579;DHT22;11967;50.852;4.400;2024-01-06T14:42:19;9.90;99.90
23579;DHT22;11967;50.852;4.400;2024-01-06T14:44:45;10.00;99.90
23579;DHT22;11967;50.852;4.400;2024-01-06T14:47:11;9.90;99.90
23579;DHT22;11967;50.852;4.400;2024-01-06T14:49:38;9.90;99.90
23579;DHT22;11967;50.852;4.400;2024-01-06T14:52:04;9.90;99.90
23579;DHT22;11967;50.852;4.400;2024-01-06T14:54:30;10.00;99.90
23579;DHT22;11967;50.852;4.400;2024-01-06T14:56:57;10.00;99.90
23579;DHT22;11967;50.852;4.400;2024-01-06T14:59:24;9.90;99.90
23579;DHT22;11967;50.852;4.400;2024-01-06T15:01:49;9.80;99.90
23579;DHT22;11967;50.852;4.400;2024-01-06T15:04:15;9.90;99.90
23579;DHT22;11967;50.852;4.400;2024-01-06T15:06:43;9.90;99.90
23579;DHT22;11967;50.852;4.400;2024-01-06T15:09:09;10.00;99.90
23579;DHT22;11967;50.852;4.400;2024-01-06T15:11:35;9.90;99.90
23579;DHT22;11967;50.852;4.400;2024-01-06T15:14:01;9.90;99.90
23579;DHT22;11967;50.852;4.400;2024-01-06T15:16:30;9.90;99.90
23579;DHT22;11967;50.852;4.400;2024-01-06T15:18:56;9.90;99.90
23579;DHT22;11967;50.852;4.400;2024-01-06T15:21:24;9.90;99.90
23579;DHT22;11967;50.852;4.400;2024-01-06T15:23:52;9.90;99.90
23579;DHT22;11967;50.852;4.400;2024-01-06T15:26:25;9.90;99.90
23579;DHT22;11967;50.852;4.400;2024-01-06T15:28:51;9.90;99.90
23579;DHT22;11967;50.852;4.400;2024-01-06T15:31:17;9.80;99.90